AKST,Max TemperatureF,Mean TemperatureF,Min TemperatureF,Max Dew PointF,MeanDew PointF,Min DewpointF,Max Humidity, Mean Humidity, Min Humidity, Max Sea Level PressureIn, Mean Sea Level PressureIn, Min Sea Level PressureIn, Max VisibilityMiles, Mean VisibilityMiles, Min VisibilityMiles, Max Wind SpeedMPH, Mean Wind SpeedMPH, Max Gust SpeedMPH,PrecipitationIn, CloudCover, Events, WindDirDegrees
2013-11-1,46,37,27,32,29,26,0,0,0,30.06,29.94,29.73,10,10,10,9,3,12,0.00,1,,268
2013-11-2,47,37,27,45,39,25,0,0,0,30.05,29.77,29.63,10,9,3,6,5,6,0.06,7,Rain,124
2013-11-3,45,40,34,44,42,34,0,0,0,29.71,29.58,29.41,10,8,2,15,7,17,0.49,8,Rain,92
2013-11-4,44,42,39,41,37,35,0,0,0,29.41,29.31,29.24,10,10,7,20,10,29,0.46,8,Rain,301
2013-11-5,46,42,38,37,28,20,0,0,0,30.00,29.70,29.43,10,10,10,35,16,44,0.00,5,,291
2013-11-6,40,35,29,36,26,21,0,0,0,30.06,29.97,29.81,10,10,6,9,4,10,0.01,6,Rain,278
2013-11-7,45,41,36,42,37,34,0,0,0,29.85,29.65,29.56,10,9,4,26,12,33,0.42,8,Rain,295
2013-11-8,46,42,37,35,31,27,0,0,0,30.24,30.09,29.88,10,10,10,23,12,37,T,4,Rain,285
2013-11-9,49,44,38,41,37,33,0,0,0,30.25,30.20,30.09,10,10,10,12,3,16,0.00,5,,270
2013-11-10,50,44,38,42,37,25,0,0,0,30.05,29.87,29.77,10,10,7,22,8,30,0.01,7,Rain,255
2013-11-11,41,38,35,30,23,18,0,0,0,30.04,29.98,29.93,10,10,2,25,13,32,T,4,Snow,296
2013-11-12,43,38,32,26,18,12,0,0,0,30.15,30.08,30.03,10,10,10,25,8,31,0.00,3,,291
2013-11-13,54,44,34,44,36,26,0,0,0,30.25,30.19,30.14,10,10,10,14,3,20,0.02,5,Rain-Snow,286
2013-11-14,59,52,44,46,40,31,0,0,0,30.18,30.08,30.00,10,10,10,24,11,30,0.00,6,,294
2013-11-15,50,47,43,37,33,28,0,0,0,30.08,30.01,29.94,10,10,10,25,8,31,0.01,7,Rain,275
2013-11-16,44,39,34,34,15,8,0,0,0,30.24,30.16,30.00,10,10,10,26,13,36,0.00,4,,291
2013-11-17,30,28,26,14,11,9,56,46,31,30.22,30.20,30.17,10,10,7,20,12,29,0.00,3,Snow,292
2013-11-18,31,25,18,15,10,6,0,0,0,30.19,30.17,30.15,10,10,6,17,7,24,T,3,Snow,299
2013-11-19,28,22,16,16,13,9,0,0,0,30.16,30.09,29.99,10,10,9,10,4,13,T,6,Snow,289
2013-11-20,35,28,21,30,23,14,0,0,0,29.98,29.78,29.64,10,4,0,36,14,48,0.44,8,Fog-Snow,318
2013-11-21,47,40,33,45,36,27,0,0,0,29.66,29.25,28.93,10,4,2,30,14,40,1.45,8,Rain-Snow,18
2013-11-22,44,32,20,37,18,9,0,0,0,29.57,29.33,29.05,10,10,10,22,9,29,0.00,4,,265
2013-11-23,39,29,18,35,23,14,0,0,0,29.95,29.82,29.58,10,10,9,16,5,21,0.03,4,Rain-Snow,236
2013-11-24,42,41,39,38,36,34,0,0,0,29.95,29.89,29.81,10,9,5,28,17,35,0.08,8,Rain,120
2013-11-25,42,37,31,37,35,30,0,0,0,29.80,29.74,29.70,10,10,5,25,8,30,0.12,7,Rain,41
2013-11-26,41,35,29,32,31,28,0,0,0,29.91,29.86,29.80,10,10,10,10,5,16,0.00,5,,292
2013-11-27,40,35,30,32,27,24,0,0,0,29.91,29.84,29.78,10,10,10,25,10,32,0.00,2,,281
2013-11-28,35,29,22,21,10,4,0,0,0,29.99,29.89,29.78,10,10,10,28,14,37,0.00,0,,287
2013-11-29,29,24,19,14,8,1,0,0,0,30.14,30.06,30.00,10,10,10,24,10,31,0.00,1,,287
2013-11-30,29,25,21,16,14,11,0,0,0,30.31,30.20,30.13,10,10,10,36,12,45,T,4,,305